createdAt,value
2022-12-03T00:01:42.122Z,12.60
2022-12-03T00:04:44.787Z,11.10
2022-12-03T00:07:47.352Z,12.20
2022-12-03T00:10:50.122Z,11.48
2022-12-03T00:13:52.989Z,11.10
2022-12-03T00:16:55.623Z,11.55
2022-12-03T00:19:58.279Z,11.57
2022-12-03T00:23:01.215Z,11.55
2022-12-03T00:26:04.527Z,10.77
2022-12-03T00:29:07.834Z,11.07
2022-12-03T00:32:10.638Z,9.98
2022-12-03T00:35:14.311Z,10.10
2022-12-03T00:38:17.417Z,10.48
2022-12-03T00:41:20.237Z,10.00
2022-12-03T00:44:22.889Z,10.77
2022-12-03T00:47:25.390Z,10.82
2022-12-03T00:50:28.634Z,9.98
2022-12-03T00:53:31.464Z,10.77
2022-12-03T00:56:34.991Z,10.43
2022-12-03T00:59:38.222Z,10.40
2022-12-03T01:02:41.298Z,10.63
2022-12-03T01:05:44.041Z,12.07
2022-12-03T01:08:46.846Z,11.07
2022-12-03T01:11:49.003Z,12.23
2022-12-03T01:14:51.516Z,12.88
2022-12-03T01:17:54.182Z,11.30
2022-12-03T01:20:56.928Z,10.43
2022-12-03T01:24:00.124Z,12.60
2022-12-03T01:27:02.394Z,10.80
2022-12-03T01:30:04.912Z,11.27
2022-12-03T01:33:07.811Z,11.38
2022-12-03T01:36:11.898Z,10.82
2022-12-03T01:39:14.339Z,11.52
2022-12-03T01:42:17.295Z,12.15
2022-12-03T01:45:20.650Z,10.40
2022-12-03T01:48:24.145Z,11.38
2022-12-03T01:51:26.594Z,10.77
2022-12-03T01:54:29.124Z,11.68
2022-12-03T01:57:31.357Z,11.30
2022-12-03T02:00:33.524Z,10.90
2022-12-03T02:03:36.032Z,11.10
2022-12-03T02:06:38.615Z,11.13
2022-12-03T02:09:41.838Z,12.15
2022-12-03T02:12:44.312Z,12.52
2022-12-03T02:15:46.511Z,12.40
2022-12-03T02:18:49.040Z,12.98
2022-12-03T02:21:51.257Z,12.27
2022-12-03T02:24:54.090Z,12.43
2022-12-03T02:27:57.021Z,11.32
2022-12-03T02:30:59.910Z,10.98
2022-12-03T02:34:02.915Z,12.32
2022-12-03T02:37:05.708Z,11.38
2022-12-03T02:40:07.834Z,12.40
2022-12-03T02:43:10.426Z,12.38
2022-12-03T02:46:12.978Z,11.85
2022-12-03T02:49:15.456Z,12.40
2022-12-03T02:52:18.433Z,11.95
2022-12-03T02:55:21.576Z,11.65
2022-12-03T02:58:24.389Z,13.52
2022-12-03T03:01:27.210Z,11.05
2022-12-03T03:04:31.010Z,10.60
2022-12-03T03:07:33.495Z,12.38
2022-12-03T03:10:35.622Z,11.23
2022-12-03T03:13:37.659Z,12.02
2022-12-03T03:16:40.816Z,12.20
2022-12-03T03:19:44.103Z,11.02
2022-12-03T03:22:47.353Z,12.38
2022-12-03T03:25:50.600Z,12.32
2022-12-03T03:28:55.742Z,13.65
2022-12-03T03:31:58.635Z,13.63
2022-12-03T03:35:01.275Z,13.60
2022-12-03T03:38:04.205Z,14.43
2022-12-03T03:41:06.746Z,12.85
2022-12-03T03:44:09.617Z,13.50
2022-12-03T03:47:12.085Z,13.13
2022-12-03T03:50:14.256Z,12.55
2022-12-03T03:53:17.302Z,12.63
2022-12-03T03:56:20.759Z,13.30
2022-12-03T03:59:23.414Z,11.95
2022-12-03T04:02:26.014Z,13.05
2022-12-03T04:05:28.963Z,11.70
2022-12-03T04:08:31.428Z,10.77
2022-12-03T04:11:33.591Z,11.73
2022-12-03T04:14:36.565Z,11.60
2022-12-03T04:17:39.797Z,12.27
2022-12-03T04:20:44.236Z,12.55
2022-12-03T04:23:46.426Z,13.05
2022-12-03T04:26:49.043Z,11.82
2022-12-03T04:29:53.665Z,12.77
2022-12-03T04:32:58.068Z,12.20
2022-12-03T04:36:00.389Z,13.02
2022-12-03T04:39:03.262Z,11.50
2022-12-03T04:42:05.733Z,13.77
2022-12-03T04:45:08.145Z,13.18
2022-12-03T04:48:12.024Z,12.88
2022-12-03T04:51:14.298Z,12.85
2022-12-03T04:54:16.607Z,13.60
2022-12-03T04:57:19.968Z,13.20
2022-12-03T05:00:22.752Z,11.70
2022-12-03T05:03:24.953Z,12.00
2022-12-03T05:06:27.140Z,12.07
2022-12-03T05:09:29.853Z,12.80
2022-12-03T05:12:31.972Z,11.82
2022-12-03T05:15:34.586Z,11.32
2022-12-03T05:18:36.986Z,11.30
2022-12-03T05:21:39.198Z,11.65
2022-12-03T05:24:42.047Z,11.20
2022-12-03T05:27:44.903Z,11.07
2022-12-03T05:30:47.575Z,11.65
2022-12-03T05:33:50.324Z,12.27
2022-12-03T05:36:53.334Z,10.38
2022-12-03T05:39:56.274Z,11.55
2022-12-03T05:42:59.514Z,10.70
2022-12-03T05:46:02.649Z,12.02
2022-12-03T05:49:05.045Z,12.85
2022-12-03T05:52:07.212Z,12.02
2022-12-03T05:55:09.892Z,12.65
2022-12-03T05:58:12.823Z,11.77
2022-12-03T06:01:15.211Z,11.98
2022-12-03T06:04:17.869Z,12.52
2022-12-03T06:07:20.043Z,11.60
2022-12-03T06:10:22.957Z,11.80
2022-12-03T06:13:25.840Z,11.13
2022-12-03T06:16:28.683Z,9.32
2022-12-03T06:19:32.002Z,11.50
2022-12-03T06:22:35.390Z,11.35
2022-12-03T06:25:38.648Z,10.80
2022-12-03T06:28:41.105Z,10.73
2022-12-03T06:31:43.823Z,10.70
2022-12-03T06:34:46.972Z,10.65
2022-12-03T06:37:50.252Z,10.23
2022-12-03T06:40:52.677Z,11.90
2022-12-03T06:43:55.669Z,10.82
2022-12-03T06:46:58.264Z,11.35
2022-12-03T06:50:01.219Z,10.77
2022-12-03T06:53:03.645Z,10.85
2022-12-03T06:56:06.081Z,11.05
2022-12-03T06:59:09.365Z,11.75
2022-12-03T07:02:12.905Z,12.68
2022-12-03T07:05:15.611Z,11.77
2022-12-03T07:08:19.372Z,10.70
2022-12-03T07:11:21.822Z,12.23
2022-12-03T07:14:24.822Z,10.95
2022-12-03T07:17:27.525Z,11.15
2022-12-03T07:20:30.794Z,11.02
2022-12-03T07:23:33.662Z,10.73
2022-12-03T07:26:36.259Z,10.27
2022-12-03T07:29:39.154Z,11.00
2022-12-03T07:32:42.261Z,9.88
2022-12-03T07:35:45.188Z,11.00
2022-12-03T07:38:48.092Z,10.18
2022-12-03T07:41:50.623Z,11.18
2022-12-03T07:44:54.956Z,10.55
2022-12-03T07:47:58.034Z,10.90
2022-12-03T07:51:00.664Z,12.57
2022-12-03T07:54:03.262Z,11.82
2022-12-03T07:57:05.886Z,11.82
2022-12-03T08:00:09.472Z,11.10
2022-12-03T08:03:12.269Z,13.10
2022-12-03T08:06:14.930Z,13.00
2022-12-03T08:09:17.924Z,13.05
2022-12-03T08:12:20.771Z,12.18
2022-12-03T08:15:23.241Z,11.90
2022-12-03T08:18:25.631Z,12.35
2022-12-03T08:21:29.399Z,10.77
2022-12-03T08:24:33.041Z,13.18
2022-12-03T08:27:36.159Z,12.65
2022-12-03T08:30:39.049Z,12.30
2022-12-03T08:33:41.957Z,12.15
2022-12-03T08:36:44.983Z,12.55
2022-12-03T08:39:48.255Z,11.43
2022-12-03T08:42:50.908Z,13.93
2022-12-03T08:45:54.132Z,12.43
2022-12-03T08:48:57.015Z,14.27
2022-12-03T08:51:59.494Z,14.05
2022-12-03T08:55:02.306Z,14.88
2022-12-03T08:58:05.156Z,15.45
2022-12-03T09:01:07.076Z,13.38
2022-12-03T09:04:09.725Z,12.90
2022-12-03T09:07:12.536Z,15.65
2022-12-03T09:10:15.203Z,14.55
2022-12-03T09:13:17.732Z,15.57
2022-12-03T09:16:20.796Z,15.93
2022-12-03T09:19:24.007Z,15.57
2022-12-03T09:22:26.498Z,16.70
2022-12-03T09:25:29.596Z,17.17
2022-12-03T09:28:32.504Z,16.23
2022-12-03T09:31:35.408Z,14.95
2022-12-03T09:34:37.980Z,14.23
2022-12-03T09:37:40.334Z,16.67
2022-12-03T09:40:42.963Z,15.25
2022-12-03T09:47:07.807Z,16.27
2022-12-03T09:50:10.595Z,16.60
2022-12-03T09:53:13.189Z,16.13
2022-12-03T09:56:16.120Z,13.80
2022-12-03T09:59:19.681Z,15.40
2022-12-03T10:02:22.181Z,15.68
2022-12-03T10:05:25.034Z,17.83
2022-12-03T10:08:31.994Z,15.73
2022-12-03T10:11:35.414Z,19.23
2022-12-03T10:14:38.227Z,19.48
2022-12-03T10:17:40.776Z,17.05
2022-12-03T10:20:43.433Z,18.25
2022-12-03T10:23:48.339Z,19.33
2022-12-03T10:26:54.125Z,19.48
2022-12-03T10:29:56.311Z,19.92
2022-12-03T10:32:58.992Z,18.58
2022-12-03T10:36:01.580Z,19.33
2022-12-03T10:39:04.414Z,20.35
2022-12-03T10:42:07.284Z,18.90
2022-12-03T10:45:10.913Z,19.30
2022-12-03T10:48:13.733Z,18.70
2022-12-03T10:51:15.925Z,19.13
2022-12-03T10:54:18.625Z,19.30
2022-12-03T10:57:21.676Z,17.40
2022-12-03T11:00:24.126Z,17.73
2022-12-03T11:03:27.074Z,16.70
2022-12-03T11:06:29.743Z,16.27
2022-12-03T11:09:32.579Z,18.08
2022-12-03T11:12:35.130Z,16.92
2022-12-03T11:15:38.203Z,18.02
2022-12-03T11:18:41.031Z,16.50
2022-12-03T11:21:43.942Z,16.98
2022-12-03T11:24:46.817Z,18.00
2022-12-03T11:27:49.353Z,17.02
2022-12-03T11:30:52.028Z,16.88
2022-12-03T11:33:54.640Z,16.65
2022-12-03T11:37:01.837Z,17.35
2022-12-03T11:40:04.611Z,17.45
2022-12-03T11:43:07.772Z,17.63
2022-12-03T11:46:10.288Z,18.33
2022-12-03T11:49:13.235Z,18.25
2022-12-03T11:52:15.655Z,18.35
2022-12-03T11:55:18.563Z,18.08
2022-12-03T11:58:20.934Z,16.40
2022-12-03T12:01:23.577Z,16.48
2022-12-03T12:04:26.261Z,14.65
2022-12-03T12:07:28.952Z,15.50
2022-12-03T12:10:32.138Z,15.10
2022-12-03T12:13:35.040Z,15.88
2022-12-03T12:16:37.694Z,16.58
2022-12-03T12:19:39.937Z,15.27
2022-12-03T12:22:42.373Z,15.00
2022-12-03T12:25:48.241Z,14.60
2022-12-03T12:28:52.803Z,13.77
2022-12-03T12:31:55.187Z,14.65
2022-12-03T12:34:58.009Z,12.73
2022-12-03T12:38:00.726Z,12.95
2022-12-03T12:41:03.476Z,13.02
2022-12-03T12:44:06.308Z,13.40
2022-12-03T12:47:08.813Z,14.02
2022-12-03T12:50:11.478Z,12.80
2022-12-03T12:53:14.407Z,15.75
2022-12-03T12:56:17.572Z,14.73
2022-12-03T12:59:20.453Z,13.43
2022-12-03T13:02:23.121Z,13.15
2022-12-03T13:05:25.255Z,14.25
2022-12-03T13:08:27.868Z,14.07
2022-12-03T13:11:30.072Z,14.35
2022-12-03T13:14:33.088Z,13.70
2022-12-03T13:17:35.465Z,14.43
2022-12-03T13:20:38.483Z,12.80
2022-12-03T13:23:41.329Z,13.13
2022-12-03T13:26:44.609Z,12.40
2022-12-03T13:29:47.873Z,13.02
2022-12-03T13:32:50.698Z,12.88
2022-12-03T13:35:53.204Z,13.43
2022-12-03T13:38:55.784Z,12.70
2022-12-03T13:41:58.629Z,12.45
2022-12-03T13:45:01.372Z,13.80
2022-12-03T13:48:03.944Z,15.43
2022-12-03T13:51:06.772Z,15.02
2022-12-03T13:54:14.463Z,13.63
2022-12-03T13:57:18.482Z,14.65
2022-12-03T14:00:20.628Z,14.02
2022-12-03T14:03:23.531Z,15.90
2022-12-03T14:06:25.676Z,16.45
2022-12-03T14:09:28.279Z,16.35
2022-12-03T14:12:39.285Z,17.13
2022-12-03T14:15:50.155Z,14.55
2022-12-03T14:18:52.301Z,16.48
2022-12-03T14:21:54.852Z,15.43
2022-12-03T14:24:57.001Z,15.77
2022-12-03T14:28:03.667Z,15.32
2022-12-03T14:31:06.396Z,15.00
2022-12-03T14:34:14.497Z,14.80
2022-12-03T14:37:16.628Z,15.65
2022-12-03T14:40:21.782Z,14.18
2022-12-03T14:43:24.896Z,16.88
2022-12-03T14:46:27.852Z,13.80
2022-12-03T14:49:30.496Z,15.75
2022-12-03T14:52:34.911Z,18.63
2022-12-03T14:55:37.537Z,17.50
2022-12-03T14:58:40.312Z,16.33
2022-12-03T15:01:42.751Z,17.70
2022-12-03T15:04:46.704Z,16.60
2022-12-03T15:07:50.120Z,15.52
2022-12-03T15:14:08.518Z,15.63
2022-12-03T15:17:11.344Z,16.45
2022-12-03T15:20:14.400Z,16.00
2022-12-03T15:23:18.306Z,15.90
2022-12-03T15:26:20.812Z,17.02
2022-12-03T15:29:23.569Z,15.18
2022-12-03T15:32:27.234Z,15.35
2022-12-03T15:35:30.172Z,15.48
2022-12-03T15:38:32.341Z,15.45
2022-12-03T15:41:35.134Z,13.75
2022-12-03T15:44:37.687Z,14.07
2022-12-03T15:47:40.577Z,14.57
2022-12-03T15:50:42.998Z,15.57
2022-12-03T15:53:45.577Z,14.73
2022-12-03T15:56:51.593Z,14.93
2022-12-03T15:59:57.835Z,15.00
2022-12-03T16:03:00.474Z,14.27
2022-12-03T16:09:25.276Z,15.48
2022-12-03T16:12:29.636Z,15.48
2022-12-03T16:15:32.109Z,15.60
2022-12-03T16:18:34.285Z,15.52
2022-12-03T16:21:36.803Z,16.33
2022-12-03T16:24:39.401Z,16.17
2022-12-03T16:27:42.320Z,18.55
2022-12-03T16:30:45.136Z,17.05
2022-12-03T16:33:48.080Z,16.50
2022-12-03T16:36:50.793Z,17.48
2022-12-03T16:39:54.186Z,15.77
2022-12-03T16:42:57.214Z,17.67
2022-12-03T16:45:59.925Z,17.30
2022-12-03T16:49:02.647Z,17.80
2022-12-03T16:55:24.688Z,17.48
2022-12-03T16:58:27.902Z,18.45
2022-12-03T17:01:30.862Z,16.63
2022-12-03T17:04:33.473Z,16.90
2022-12-03T17:07:36.584Z,16.27
2022-12-03T17:10:39.480Z,17.77
2022-12-03T17:13:42.755Z,17.20
2022-12-03T17:16:45.478Z,17.55
2022-12-03T17:19:48.139Z,18.50
2022-12-03T17:22:50.806Z,19.50
2022-12-03T17:25:54.010Z,18.55
2022-12-03T17:28:57.083Z,18.05
2022-12-03T17:32:00.029Z,20.15
2022-12-03T17:35:03.567Z,18.45
2022-12-03T17:38:06.820Z,20.98
2022-12-03T17:41:09.667Z,19.15
2022-12-03T17:44:16.311Z,17.85
2022-12-03T17:47:21.528Z,18.67
2022-12-03T17:50:24.517Z,19.15
2022-12-03T17:53:27.079Z,21.67
2022-12-03T17:56:30.284Z,20.58
2022-12-03T17:59:33.521Z,19.70
2022-12-03T18:02:36.548Z,20.63
2022-12-03T18:05:39.571Z,20.40
2022-12-03T18:08:41.560Z,18.98
2022-12-03T18:11:44.679Z,19.95
2022-12-03T18:14:48.104Z,20.48
2022-12-03T18:17:51.153Z,20.33
2022-12-03T18:20:54.487Z,19.63
2022-12-03T18:23:57.552Z,21.52
2022-12-03T18:27:00.862Z,21.25
2022-12-03T18:30:03.501Z,21.95
2022-12-03T18:33:05.691Z,21.25
2022-12-03T18:36:13.545Z,21.17
2022-12-03T18:39:17.364Z,23.05
2022-12-03T18:42:19.304Z,23.75
2022-12-03T18:45:22.119Z,27.63
2022-12-03T18:48:24.723Z,23.13
2022-12-03T18:51:27.595Z,22.38
2022-12-03T18:54:30.719Z,22.45
2022-12-03T18:57:33.560Z,20.88
2022-12-03T19:00:36.690Z,19.08
2022-12-03T19:03:39.744Z,19.20
2022-12-03T19:06:42.564Z,20.42
2022-12-03T19:09:45.668Z,19.33
2022-12-03T19:12:48.800Z,21.13
2022-12-03T19:15:52.096Z,19.95
2022-12-03T19:18:54.695Z,19.38
2022-12-03T19:21:57.790Z,20.15
2022-12-03T19:25:00.687Z,19.85
2022-12-03T19:28:02.910Z,20.23
2022-12-03T19:31:05.673Z,20.23
2022-12-03T19:34:08.371Z,21.88
2022-12-03T19:37:10.739Z,19.95
2022-12-03T19:40:13.280Z,20.83
2022-12-03T19:43:16.541Z,21.85
2022-12-03T19:46:19.966Z,22.05
2022-12-03T19:49:22.424Z,22.02
2022-12-03T19:52:25.252Z,20.98
2022-12-03T19:55:28.355Z,20.88
2022-12-03T19:58:31.391Z,21.35
2022-12-03T20:01:34.123Z,20.63
2022-12-03T20:04:37.187Z,21.55
2022-12-03T20:07:39.842Z,19.27
2022-12-03T20:10:43.031Z,18.63
2022-12-03T20:13:45.916Z,19.40
2022-12-03T20:16:48.634Z,19.83
2022-12-03T20:19:51.217Z,18.10
2022-12-03T20:22:54.404Z,21.63
2022-12-03T20:25:57.351Z,18.45
2022-12-03T20:29:00.087Z,19.10
2022-12-03T20:32:03.227Z,19.10
2022-12-03T20:35:06.133Z,19.42
2022-12-03T20:38:09.116Z,19.98
2022-12-03T20:41:12.115Z,19.73
2022-12-03T20:44:14.765Z,19.02
2022-12-03T20:47:16.999Z,20.67
2022-12-03T20:50:19.611Z,19.10
2022-12-03T20:53:25.665Z,20.63
2022-12-03T20:56:27.590Z,19.23
2022-12-03T20:59:30.165Z,19.27
2022-12-03T21:02:32.658Z,20.40
2022-12-03T21:05:35.632Z,21.75
2022-12-03T21:08:42.368Z,20.42
2022-12-03T21:11:45.349Z,17.58
2022-12-03T21:14:48.513Z,19.60
2022-12-03T21:17:52.340Z,19.85
2022-12-03T21:20:55.369Z,18.83
2022-12-03T21:23:57.966Z,18.55
2022-12-03T21:27:00.500Z,19.42
2022-12-03T21:30:02.711Z,20.00
2022-12-03T21:33:04.932Z,18.75
2022-12-03T21:36:07.481Z,18.08
2022-12-03T21:39:10.236Z,19.48
2022-12-03T21:42:19.222Z,18.55
2022-12-03T21:45:35.466Z,18.90
2022-12-03T21:48:37.954Z,18.77
2022-12-03T21:51:40.494Z,19.80
2022-12-03T21:54:43.864Z,21.77
2022-12-03T21:57:47.074Z,20.88
2022-12-03T22:00:50.191Z,19.65
2022-12-03T22:03:52.538Z,20.58
2022-12-03T22:06:54.966Z,19.42
2022-12-03T22:09:58.158Z,20.95
2022-12-03T22:13:01.496Z,19.55
2022-12-03T22:16:04.758Z,17.33
2022-12-03T22:19:07.695Z,17.40
2022-12-03T22:22:10.287Z,17.70
2022-12-03T22:25:13.243Z,19.60
2022-12-03T22:28:16.702Z,19.20
2022-12-03T22:31:19.823Z,17.83
2022-12-03T22:34:22.706Z,21.02
2022-12-03T22:37:24.855Z,19.38
2022-12-03T22:40:27.680Z,19.40
2022-12-03T22:43:30.781Z,19.58
2022-12-03T22:46:34.457Z,21.00
2022-12-03T22:49:38.168Z,20.42
2022-12-03T22:52:40.751Z,21.85
2022-12-03T22:55:42.883Z,21.25
2022-12-03T22:58:45.505Z,21.77
2022-12-03T23:01:47.730Z,22.20
2022-12-03T23:04:50.442Z,22.40
2022-12-03T23:07:53.065Z,20.85
2022-12-03T23:10:55.210Z,20.00
2022-12-03T23:13:57.777Z,20.92
2022-12-03T23:17:00.176Z,20.50
2022-12-03T23:20:02.558Z,20.15
2022-12-03T23:23:05.348Z,17.73
2022-12-03T23:26:08.226Z,20.23
2022-12-03T23:29:10.323Z,20.35
2022-12-03T23:32:12.843Z,19.20
2022-12-03T23:35:15.384Z,20.40
2022-12-03T23:38:18.354Z,21.10
2022-12-03T23:41:21.339Z,20.77
2022-12-03T23:44:25.122Z,21.50
2022-12-03T23:47:28.766Z,20.65
2022-12-03T23:50:31.931Z,21.25
2022-12-03T23:53:34.602Z,21.70
2022-12-03T23:56:37.027Z,23.30
2022-12-03T23:59:39.192Z,23.05
